Painted Rocks, Iowa
Current Conditions -  °F | °C
As of 5:55 AM on Thursday 23 Oct 2014 (Local Time) from KPEA Reporting Station
Light Rain Light Rain  
Wind Chill: 50°   Ceiling: Unl
Heat Index: 50°   Visibility: 10mi
Dew Point: 46°   Wind: 6mph
Humidity: 83%   Direction: 130°SE
Pressure: 30.07"   Gusts: NA
Location:  41.4592°N, 93.0401°W
Report Text: KPEA 231055Z AUTO 13005KT 10SM -RA CLR 10/08 A3007 RMK AO2 P0001 T01020075
Loading
Personal Weather Stations






























Interactive Weather Map
Tropical Storm Tracking
New forecast layout! Learn more

10-Day Weather Forecast

Advertisements
Track Severe Weather on mobile